createdAt,value
2019-02-26T00:02:03.981Z,24.50
2019-02-26T00:04:36.806Z,24.50
2019-02-26T00:07:07.781Z,22.07
2019-02-26T00:09:38.545Z,24.03
2019-02-26T00:12:09.401Z,23.57
2019-02-26T00:14:40.159Z,24.10
2019-02-26T00:17:13.044Z,23.43
2019-02-26T00:19:43.951Z,24.70
2019-02-26T00:22:15.899Z,23.47
2019-02-26T00:24:48.253Z,22.77
2019-02-26T00:27:20.052Z,23.83
2019-02-26T00:29:53.014Z,24.47
2019-02-26T00:32:23.223Z,22.50
2019-02-26T00:34:55.732Z,23.17
2019-02-26T00:37:39.975Z,22.83
2019-02-26T00:40:12.390Z,24.10
2019-02-26T00:42:43.154Z,23.27
2019-02-26T00:45:14.605Z,21.50
2019-02-26T00:47:46.171Z,23.30
2019-02-26T00:50:16.907Z,22.53
2019-02-26T00:52:47.783Z,22.53
2019-02-26T00:55:18.547Z,22.60
2019-02-26T00:57:49.180Z,21.23
2019-02-26T01:00:19.954Z,22.40
2019-02-26T01:02:50.884Z,22.40
2019-02-26T01:05:21.633Z,20.73
2019-02-26T01:07:54.387Z,21.33
2019-02-26T01:10:25.404Z,19.93
2019-02-26T01:12:56.915Z,21.30
2019-02-26T01:15:28.606Z,22.13
2019-02-26T01:18:00.947Z,22.00
2019-02-26T01:20:32.142Z,24.43
2019-02-26T01:23:03.476Z,21.73
2019-02-26T01:25:34.213Z,21.37
2019-02-26T01:28:05.152Z,20.77
2019-02-26T01:30:36.311Z,21.37
2019-02-26T01:33:08.117Z,20.57
2019-02-26T01:35:39.772Z,20.97
2019-02-26T01:38:12.053Z,20.37
2019-02-26T01:40:44.203Z,21.77
2019-02-26T01:43:16.607Z,20.57
2019-02-26T01:45:48.611Z,21.97
2019-02-26T01:48:21.555Z,20.13
2019-02-26T01:50:54.535Z,21.47
2019-02-26T01:53:27.219Z,21.57
2019-02-26T01:55:57.558Z,21.20
2019-02-26T01:58:28.515Z,22.03
2019-02-26T02:00:59.366Z,21.77
2019-02-26T02:03:30.983Z,20.70
2019-02-26T02:06:02.562Z,22.37
2019-02-26T02:08:33.172Z,22.20
2019-02-26T02:11:07.543Z,22.63
2019-02-26T02:13:38.615Z,21.67
2019-02-26T02:16:10.002Z,22.93
2019-02-26T02:18:43.646Z,21.50
2019-02-26T02:21:13.708Z,23.00
2019-02-26T02:23:46.441Z,22.60
2019-02-26T02:26:17.572Z,22.27
2019-02-26T02:28:48.496Z,22.80
2019-02-26T02:31:21.967Z,22.73
2019-02-26T02:33:52.285Z,22.70
2019-02-26T02:36:26.159Z,20.80
2019-02-26T02:38:56.564Z,21.27
2019-02-26T02:41:27.261Z,20.90
2019-02-26T02:43:57.899Z,21.00
2019-02-26T02:46:28.755Z,21.60
2019-02-26T02:48:59.339Z,21.53
2019-02-26T02:51:31.457Z,21.13
2019-02-26T02:54:02.436Z,21.33
2019-02-26T02:56:34.081Z,21.30
2019-02-26T02:59:08.749Z,21.30
2019-02-26T03:01:38.995Z,20.20
2019-02-26T03:04:09.680Z,20.47
2019-02-26T03:06:40.294Z,20.67
2019-02-26T03:09:17.742Z,20.33
2019-02-26T03:11:49.707Z,20.97
2019-02-26T03:14:20.453Z,19.93
2019-02-26T03:16:53.386Z,21.17
2019-02-26T03:19:23.461Z,19.50
2019-02-26T03:21:55.023Z,20.67
2019-02-26T03:24:28.413Z,18.90
2019-02-26T03:26:59.788Z,20.60
2019-02-26T03:29:30.695Z,20.10
2019-02-26T03:32:01.772Z,18.10
2019-02-26T03:34:32.458Z,19.87
2019-02-26T03:37:05.655Z,20.37
2019-02-26T03:39:35.849Z,20.60
2019-02-26T03:42:08.203Z,20.27
2019-02-26T03:44:39.215Z,19.00
2019-02-26T03:47:10.053Z,19.97
2019-02-26T03:49:42.291Z,21.53
2019-02-26T03:52:15.320Z,19.87
2019-02-26T03:54:48.010Z,21.53
2019-02-26T03:57:20.111Z,20.47
2019-02-26T03:59:50.222Z,20.13
2019-02-26T04:02:23.417Z,20.00
2019-02-26T04:04:54.375Z,21.20
2019-02-26T04:07:26.052Z,20.93
2019-02-26T04:09:58.544Z,20.00
2019-02-26T04:12:29.503Z,21.30
2019-02-26T04:15:00.391Z,20.43
2019-02-26T04:17:33.511Z,20.10
2019-02-26T04:20:05.594Z,21.03
2019-02-26T04:22:40.206Z,19.93
2019-02-26T04:25:57.613Z,21.63
2019-02-26T04:28:37.139Z,20.93
2019-02-26T04:31:20.147Z,20.60
2019-02-26T04:34:23.797Z,20.73
2019-02-26T04:37:35.220Z,19.73
2019-02-26T04:40:14.116Z,20.23
2019-02-26T04:43:22.023Z,20.07
2019-02-26T04:46:31.029Z,22.03
2019-02-26T04:49:00.841Z,21.03
2019-02-26T04:51:33.954Z,20.43
2019-02-26T04:54:04.335Z,21.23
2019-02-26T04:56:37.051Z,21.80
2019-02-26T04:59:09.795Z,20.50
2019-02-26T05:01:40.108Z,20.67
2019-02-26T05:04:11.131Z,22.10
2019-02-26T05:06:41.949Z,20.70
2019-02-26T05:09:13.968Z,20.73
2019-02-26T05:11:44.691Z,21.87
2019-02-26T05:14:20.825Z,21.10
2019-02-26T05:16:48.826Z,20.97
2019-02-26T05:19:21.656Z,19.67
2019-02-26T05:21:53.465Z,21.73
2019-02-26T05:24:26.251Z,22.03
2019-02-26T05:26:58.102Z,21.63
2019-02-26T05:29:29.391Z,19.73
2019-02-26T05:32:01.743Z,19.43
2019-02-26T05:34:33.533Z,19.70
2019-02-26T05:37:07.500Z,19.93
2019-02-26T05:39:37.017Z,20.67
2019-02-26T05:42:08.140Z,20.63
2019-02-26T05:44:38.935Z,19.53
2019-02-26T05:47:09.629Z,21.33
2019-02-26T05:49:41.457Z,21.40
2019-02-26T05:52:12.799Z,21.93
2019-02-26T05:54:43.373Z,19.60
2019-02-26T05:57:25.961Z,21.03
2019-02-26T05:59:48.317Z,19.23
2019-02-26T06:02:19.550Z,20.07
2019-02-26T06:04:52.533Z,18.50
2019-02-26T06:07:25.111Z,20.10
2019-02-26T06:09:59.104Z,19.77
2019-02-26T06:12:30.496Z,18.23
2019-02-26T06:15:05.139Z,20.07
2019-02-26T06:17:37.911Z,19.07
2019-02-26T06:20:13.371Z,18.43
2019-02-26T06:22:44.454Z,18.47
2019-02-26T06:25:20.664Z,19.77
2019-02-26T06:27:47.730Z,19.07
2019-02-26T06:30:18.545Z,18.77
2019-02-26T06:32:49.645Z,19.10
2019-02-26T06:35:20.520Z,20.33
2019-02-26T06:37:51.561Z,18.47
2019-02-26T06:40:22.674Z,19.47
2019-02-26T06:42:53.706Z,18.97
2019-02-26T06:45:24.811Z,19.97
2019-02-26T06:47:56.417Z,19.80
2019-02-26T06:50:28.716Z,19.27
2019-02-26T06:53:00.089Z,21.47
2019-02-26T06:55:30.996Z,20.40
2019-02-26T06:58:29.784Z,18.97
2019-02-26T07:01:01.271Z,21.23
2019-02-26T07:03:32.230Z,22.13
2019-02-26T07:06:04.860Z,22.23
2019-02-26T07:08:35.781Z,22.27
2019-02-26T07:11:07.279Z,23.97
2019-02-26T07:13:40.706Z,21.03
2019-02-26T07:16:11.673Z,23.07
2019-02-26T07:18:42.871Z,23.13
2019-02-26T07:21:14.011Z,22.43
2019-02-26T07:23:45.035Z,22.23
2019-02-26T07:26:18.318Z,21.07
2019-02-26T07:28:50.923Z,21.63
2019-02-26T07:31:24.183Z,22.73
2019-02-26T07:33:56.405Z,23.67
2019-02-26T07:36:28.154Z,26.00
2019-02-26T07:38:59.272Z,22.60
2019-02-26T07:41:30.431Z,23.83
2019-02-26T07:44:01.151Z,22.70
2019-02-26T07:46:33.682Z,24.40
2019-02-26T07:49:05.631Z,24.57
2019-02-26T07:51:38.561Z,24.90
2019-02-26T07:54:09.229Z,23.30
2019-02-26T07:56:40.032Z,24.83
2019-02-26T07:59:12.449Z,25.40
2019-02-26T08:01:45.272Z,23.33
2019-02-26T08:04:17.952Z,24.47
2019-02-26T08:06:48.168Z,22.83
2019-02-26T08:09:23.122Z,22.73
2019-02-26T08:11:52.526Z,22.40
2019-02-26T08:14:25.488Z,23.97
2019-02-26T08:16:56.746Z,22.57
2019-02-26T08:19:29.431Z,23.10
2019-02-26T08:22:00.631Z,24.93
2019-02-26T08:24:32.348Z,22.43
2019-02-26T08:27:04.200Z,22.13
2019-02-26T08:29:36.287Z,22.00
2019-02-26T08:32:07.006Z,23.67
2019-02-26T08:34:39.767Z,23.20
2019-02-26T08:37:10.115Z,22.63
2019-02-26T08:39:41.157Z,23.77
2019-02-26T08:42:12.461Z,25.90
2019-02-26T08:44:46.198Z,23.00
2019-02-26T08:47:16.860Z,21.87
2019-02-26T08:49:48.506Z,20.93
2019-02-26T08:52:21.887Z,21.37
2019-02-26T08:54:51.504Z,21.13
2019-02-26T08:57:22.704Z,21.70
2019-02-26T08:59:54.562Z,22.33
2019-02-26T09:02:25.467Z,21.07
2019-02-26T09:04:56.297Z,21.43
2019-02-26T09:07:27.109Z,19.47
2019-02-26T09:09:57.800Z,19.27
2019-02-26T09:12:28.635Z,19.87
2019-02-26T09:14:59.436Z,20.53
2019-02-26T09:17:32.600Z,20.97
2019-02-26T09:20:09.191Z,20.57
2019-02-26T09:22:35.205Z,17.10
2019-02-26T09:25:07.230Z,20.50
2019-02-26T09:27:42.735Z,19.80
2019-02-26T09:30:14.058Z,20.03
2019-02-26T09:32:45.667Z,22.00
2019-02-26T09:35:19.181Z,22.43
2019-02-26T09:37:52.078Z,22.30
2019-02-26T09:40:23.515Z,20.23
2019-02-26T09:42:55.216Z,16.63
2019-02-26T09:45:29.176Z,17.73
2019-02-26T09:47:58.289Z,16.37
2019-02-26T09:50:29.198Z,18.70
2019-02-26T09:53:00.000Z,18.13
2019-02-26T09:55:30.760Z,16.83
2019-02-26T09:58:02.583Z,17.77
2019-02-26T10:00:33.470Z,17.27
2019-02-26T10:03:06.160Z,17.37
2019-02-26T10:05:36.276Z,17.07
2019-02-26T10:08:06.972Z,16.73
2019-02-26T10:10:39.841Z,19.13
2019-02-26T10:13:10.249Z,18.43
2019-02-26T10:15:42.782Z,17.53
2019-02-26T10:18:14.405Z,17.73
2019-02-26T10:20:47.353Z,18.63
2019-02-26T10:23:19.196Z,19.07
2019-02-26T10:25:53.020Z,17.87
2019-02-26T10:28:22.438Z,17.07
2019-02-26T10:30:55.059Z,18.93
2019-02-26T10:33:25.626Z,18.20
2019-02-26T10:35:56.341Z,17.10
2019-02-26T10:38:30.362Z,17.83
2019-02-26T10:41:01.699Z,17.40
2019-02-26T10:43:32.243Z,18.47
2019-02-26T10:46:04.264Z,17.73
2019-02-26T10:48:36.045Z,18.07
2019-02-26T10:51:07.322Z,20.40
2019-02-26T10:53:39.833Z,19.07
2019-02-26T10:56:11.410Z,18.33
2019-02-26T10:58:42.200Z,18.60
2019-02-26T11:01:12.972Z,18.07
2019-02-26T11:03:44.897Z,18.83
2019-02-26T11:06:17.336Z,21.67
2019-02-26T11:08:50.446Z,20.60
2019-02-26T11:11:20.282Z,19.50
2019-02-26T11:13:53.692Z,20.93
2019-02-26T11:16:25.416Z,19.07
2019-02-26T11:18:55.894Z,19.70
2019-02-26T11:21:26.715Z,19.13
2019-02-26T11:23:58.503Z,20.00
2019-02-26T11:26:30.106Z,19.33
2019-02-26T11:29:02.157Z,18.00
2019-02-26T11:31:32.974Z,18.57
2019-02-26T11:34:06.663Z,16.63
2019-02-26T11:36:38.306Z,17.20
2019-02-26T11:39:09.300Z,18.10
2019-02-26T11:41:41.407Z,19.17
2019-02-26T11:44:15.062Z,18.13
2019-02-26T11:46:48.573Z,17.07
2019-02-26T11:49:19.365Z,17.40
2019-02-26T11:51:54.565Z,17.47
2019-02-26T11:54:25.165Z,18.30
2019-02-26T11:56:55.879Z,18.63
2019-02-26T11:59:26.612Z,20.13
2019-02-26T12:01:58.951Z,19.30
2019-02-26T12:04:29.616Z,17.30
2019-02-26T12:07:01.838Z,18.70
2019-02-26T12:09:37.543Z,17.33
2019-02-26T12:12:06.681Z,16.13
2019-02-26T12:14:42.707Z,16.90
2019-02-26T12:17:11.412Z,14.93
2019-02-26T12:19:42.114Z,14.83
2019-02-26T12:22:14.162Z,15.93
2019-02-26T12:24:44.923Z,17.10
2019-02-26T12:27:18.150Z,14.20
2019-02-26T12:29:49.024Z,15.03
2019-02-26T12:32:22.325Z,15.73
2019-02-26T12:34:53.492Z,16.60
2019-02-26T12:37:25.136Z,16.90
2019-02-26T12:39:57.938Z,17.37
2019-02-26T12:42:28.110Z,15.33
2019-02-26T12:45:03.286Z,15.63
2019-02-26T12:47:31.028Z,13.90
2019-02-26T12:50:04.799Z,12.80
2019-02-26T12:52:34.253Z,12.03
2019-02-26T12:55:08.174Z,12.70
2019-02-26T12:57:37.988Z,12.37
2019-02-26T13:00:13.265Z,11.13
2019-02-26T13:02:45.756Z,10.63
2019-02-26T13:05:19.682Z,13.80
2019-02-26T13:07:50.015Z,10.10
2019-02-26T13:10:21.573Z,12.53
2019-02-26T13:12:55.049Z,9.23
2019-02-26T13:15:24.412Z,9.47
2019-02-26T13:17:56.347Z,10.10
2019-02-26T13:20:27.345Z,8.93
2019-02-26T13:23:16.233Z,8.27
2019-02-26T13:25:32.297Z,9.47
2019-02-26T13:28:05.176Z,8.70
2019-02-26T13:30:36.071Z,8.23
2019-02-26T13:33:10.999Z,9.07
2019-02-26T13:35:42.078Z,9.00
2019-02-26T13:38:12.047Z,8.27
2019-02-26T13:40:42.865Z,8.43
2019-02-26T13:43:14.069Z,7.97
2019-02-26T13:45:45.152Z,9.73
2019-02-26T13:48:16.742Z,8.73
2019-02-26T13:50:47.518Z,10.00
2019-02-26T13:53:18.398Z,8.77
2019-02-26T13:55:49.293Z,8.70
2019-02-26T13:58:19.960Z,9.03
2019-02-26T14:00:50.591Z,7.83
2019-02-26T14:03:21.467Z,7.93
2019-02-26T14:05:52.134Z,8.00
2019-02-26T14:08:23.957Z,8.53
2019-02-26T14:10:54.858Z,6.83
2019-02-26T14:13:25.668Z,8.17
2019-02-26T14:15:56.460Z,8.83
2019-02-26T14:18:26.983Z,9.87
2019-02-26T14:20:57.868Z,7.03
2019-02-26T14:23:34.748Z,7.33
2019-02-26T14:26:02.053Z,8.47
2019-02-26T14:28:33.023Z,7.70
2019-02-26T14:31:03.815Z,7.37
2019-02-26T14:33:35.519Z,7.33
2019-02-26T14:36:06.591Z,6.17
2019-02-26T14:38:37.377Z,5.37
2019-02-26T14:41:08.256Z,6.17
2019-02-26T14:43:39.287Z,6.90
2019-02-26T14:46:11.502Z,7.43
2019-02-26T14:48:42.542Z,5.17
2019-02-26T14:51:13.486Z,5.97
2019-02-26T14:53:44.285Z,5.77
2019-02-26T14:56:15.063Z,5.97
2019-02-26T14:58:45.893Z,5.53
2019-02-26T15:01:17.073Z,5.57
2019-02-26T15:03:47.952Z,6.90
2019-02-26T15:06:18.490Z,5.97
2019-02-26T15:08:49.180Z,6.13
2019-02-26T15:11:19.906Z,5.80
2019-02-26T15:13:51.037Z,7.00
2019-02-26T15:16:21.967Z,6.00
2019-02-26T15:18:53.112Z,6.30
2019-02-26T15:21:24.040Z,5.40
2019-02-26T15:23:55.128Z,8.33
2019-02-26T15:26:27.560Z,6.83
2019-02-26T15:28:59.119Z,5.07
2019-02-26T15:31:29.750Z,5.93
2019-02-26T15:34:00.632Z,5.43
2019-02-26T15:36:31.652Z,6.27
2019-02-26T15:39:02.510Z,6.60
2019-02-26T15:41:34.699Z,5.83
2019-02-26T15:44:05.716Z,4.77
2019-02-26T15:46:36.488Z,6.27
2019-02-26T15:49:07.719Z,4.73
2019-02-26T15:51:39.008Z,5.50
2019-02-26T15:54:10.313Z,5.33
2019-02-26T15:56:42.747Z,5.27
2019-02-26T15:59:14.059Z,5.23
2019-02-26T16:01:45.105Z,5.70
2019-02-26T16:04:17.005Z,5.63
2019-02-26T16:06:48.617Z,5.50
2019-02-26T16:09:20.189Z,5.30
2019-02-26T16:11:50.956Z,10.33
2019-02-26T16:14:22.149Z,7.53
2019-02-26T16:16:53.934Z,7.10
2019-02-26T16:19:25.285Z,7.63
2019-02-26T16:21:56.251Z,5.60
2019-02-26T16:24:27.131Z,6.27
2019-02-26T16:26:59.932Z,5.93
2019-02-26T16:29:31.030Z,6.57
2019-02-26T16:32:02.692Z,6.10
2019-02-26T16:34:35.178Z,7.10
2019-02-26T16:37:07.888Z,6.10
2019-02-26T16:39:38.516Z,5.80
2019-02-26T16:42:11.374Z,6.00
2019-02-26T16:44:41.875Z,5.60
2019-02-26T16:47:14.656Z,6.13
2019-02-26T16:49:45.310Z,6.10
2019-02-26T16:52:17.145Z,6.33
2019-02-26T16:54:48.509Z,6.20
2019-02-26T16:57:19.531Z,6.07
2019-02-26T16:59:50.282Z,7.50
2019-02-26T17:02:22.444Z,6.87
2019-02-26T17:04:53.239Z,6.80
2019-02-26T17:07:24.653Z,6.43
2019-02-26T17:09:56.255Z,6.47
2019-02-26T17:12:29.168Z,6.23
2019-02-26T17:15:00.967Z,6.10
2019-02-26T17:17:34.388Z,7.40
2019-02-26T17:20:05.875Z,15.37
2019-02-26T17:22:38.386Z,6.97
2019-02-26T17:25:10.284Z,6.53
2019-02-26T17:27:41.187Z,7.77
2019-02-26T17:30:13.022Z,7.70
2019-02-26T17:32:43.845Z,6.53
2019-02-26T17:35:15.222Z,6.63
2019-02-26T17:37:46.394Z,6.20
2019-02-26T17:40:17.492Z,6.37
2019-02-26T17:42:48.840Z,6.80
2019-02-26T17:45:21.206Z,7.17
2019-02-26T17:47:52.043Z,7.03
2019-02-26T17:50:28.626Z,7.30
2019-02-26T17:52:59.589Z,7.70
2019-02-26T17:55:30.809Z,6.67
2019-02-26T17:58:01.579Z,7.03
2019-02-26T18:00:35.782Z,7.70
2019-02-26T18:03:07.638Z,6.60
2019-02-26T18:05:50.396Z,6.37
2019-02-26T18:08:11.028Z,6.27
2019-02-26T18:10:41.767Z,5.97
2019-02-26T18:13:14.158Z,5.33
2019-02-26T18:15:45.087Z,6.87
2019-02-26T18:18:15.937Z,5.93
2019-02-26T18:20:46.965Z,5.77
2019-02-26T18:23:18.815Z,6.83
2019-02-26T18:25:49.637Z,5.47
2019-02-26T18:28:20.592Z,6.33
2019-02-26T18:30:51.378Z,6.63
2019-02-26T18:33:22.517Z,7.30
2019-02-26T18:35:53.450Z,6.87
2019-02-26T18:38:24.503Z,6.20
2019-02-26T18:40:55.849Z,5.77
2019-02-26T18:43:26.811Z,5.80
2019-02-26T18:46:00.445Z,5.60
2019-02-26T18:48:32.882Z,5.40
2019-02-26T18:51:03.679Z,5.07
2019-02-26T18:53:34.806Z,5.53
2019-02-26T18:56:05.835Z,5.40
2019-02-26T18:58:36.859Z,5.60
2019-02-26T19:01:07.613Z,6.67
2019-02-26T19:03:39.360Z,5.77
2019-02-26T19:06:11.125Z,5.90
2019-02-26T19:08:42.304Z,5.80
2019-02-26T19:11:16.619Z,6.03
2019-02-26T19:13:45.351Z,5.77
2019-02-26T19:16:20.311Z,5.40
2019-02-26T19:18:48.637Z,5.87
2019-02-26T19:21:21.641Z,5.80
2019-02-26T19:23:53.825Z,5.73
2019-02-26T19:26:24.848Z,5.27
2019-02-26T19:28:56.804Z,5.70
2019-02-26T19:31:28.371Z,5.93
2019-02-26T19:33:59.692Z,6.67
2019-02-26T19:36:30.355Z,5.50
2019-02-26T19:39:02.164Z,7.03
2019-02-26T19:41:34.777Z,6.37
2019-02-26T19:44:05.709Z,6.93
2019-02-26T19:46:37.053Z,6.50
2019-02-26T19:49:07.873Z,7.30
2019-02-26T19:51:39.396Z,6.43
2019-02-26T19:54:10.279Z,7.50
2019-02-26T19:56:41.337Z,6.50
2019-02-26T19:59:13.739Z,6.70
2019-02-26T20:01:45.864Z,6.83
2019-02-26T20:04:17.042Z,7.40
2019-02-26T20:06:48.115Z,7.57
2019-02-26T20:09:20.152Z,10.67
2019-02-26T20:11:50.859Z,11.90
2019-02-26T20:14:21.921Z,16.30
2019-02-26T20:16:52.672Z,12.70
2019-02-26T20:19:23.503Z,11.23
2019-02-26T20:21:54.482Z,10.30
2019-02-26T20:24:25.524Z,10.27
2019-02-26T20:26:56.309Z,9.53
2019-02-26T20:29:27.105Z,11.57
2019-02-26T20:31:57.789Z,11.87
2019-02-26T20:37:27.603Z,11.60
2019-02-26T20:39:58.739Z,11.70
2019-02-26T20:42:29.597Z,11.03
2019-02-26T20:45:01.474Z,11.10
2019-02-26T20:47:32.358Z,11.23
2019-02-26T20:50:02.962Z,11.37
2019-02-26T20:52:45.165Z,11.80
2019-02-26T20:55:19.189Z,12.40
2019-02-26T20:57:49.845Z,11.27
2019-02-26T21:00:24.856Z,12.03
2019-02-26T21:02:53.675Z,11.97
2019-02-26T21:05:25.177Z,10.40
2019-02-26T21:07:58.786Z,11.70
2019-02-26T21:10:29.665Z,11.40
2019-02-26T21:13:02.505Z,12.27
2019-02-26T21:15:34.385Z,14.77
2019-02-26T21:18:05.522Z,14.07
2019-02-26T21:20:38.798Z,15.03
2019-02-26T21:23:08.809Z,16.27
2019-02-26T21:25:44.190Z,15.37
2019-02-26T21:28:13.901Z,16.13
2019-02-26T21:30:45.893Z,15.30
2019-02-26T21:33:17.497Z,14.40
2019-02-26T21:35:48.233Z,16.83
2019-02-26T21:38:19.434Z,17.90
2019-02-26T21:40:52.104Z,16.20
2019-02-26T21:43:23.573Z,17.63
2019-02-26T21:45:54.649Z,19.00
2019-02-26T21:48:25.427Z,17.53
2019-02-26T21:50:55.952Z,17.40
2019-02-26T21:53:27.036Z,16.07
2019-02-26T21:55:57.876Z,18.70
2019-02-26T21:58:28.873Z,18.53
2019-02-26T22:00:59.859Z,19.37
2019-02-26T22:03:30.971Z,16.37
2019-02-26T22:06:05.497Z,18.57
2019-02-26T22:08:36.063Z,17.50
2019-02-26T22:11:06.855Z,18.67
2019-02-26T22:13:37.439Z,17.47
2019-02-26T22:16:08.119Z,17.77
2019-02-26T22:18:38.966Z,17.87
2019-02-26T22:21:09.787Z,18.33
2019-02-26T22:23:40.752Z,18.00
2019-02-26T22:26:11.268Z,21.00
2019-02-26T22:28:42.110Z,18.97
2019-02-26T22:31:14.939Z,20.70
2019-02-26T22:33:46.440Z,19.00
2019-02-26T22:36:17.156Z,19.27
2019-02-26T22:38:49.150Z,19.00
2019-02-26T22:41:20.639Z,19.87
2019-02-26T22:43:51.461Z,19.87
2019-02-26T22:46:22.438Z,17.53
2019-02-26T22:48:53.176Z,20.17
2019-02-26T22:51:23.947Z,19.43
2019-02-26T22:53:55.049Z,19.97
2019-02-26T22:56:25.807Z,19.50
2019-02-26T22:58:56.676Z,20.37
2019-02-26T23:01:36.406Z,19.77
2019-02-26T23:04:06.132Z,20.13
2019-02-26T23:06:37.538Z,20.37
2019-02-26T23:09:11.170Z,18.80
2019-02-26T23:11:43.855Z,19.00
2019-02-26T23:14:15.195Z,20.57
2019-02-26T23:16:46.273Z,21.47
2019-02-26T23:19:17.024Z,20.83
2019-02-26T23:21:50.065Z,20.40
2019-02-26T23:24:20.515Z,22.53
2019-02-26T23:26:51.276Z,21.70
2019-02-26T23:29:22.157Z,21.17
2019-02-26T23:31:52.844Z,21.47
2019-02-26T23:34:24.406Z,19.87
2019-02-26T23:36:55.117Z,22.03
2019-02-26T23:39:25.736Z,21.90
2019-02-26T23:41:58.269Z,21.93
2019-02-26T23:44:29.008Z,22.93
2019-02-26T23:47:02.097Z,24.13
2019-02-26T23:49:32.348Z,23.60
2019-02-26T23:52:03.183Z,23.47
2019-02-26T23:54:33.716Z,22.57
2019-02-26T23:57:04.347Z,24.80
2019-02-26T23:59:37.714Z,25.23
